createdAt,value
2019-05-23T00:01:56.660Z,20.47
2019-05-23T00:04:49.436Z,19.50
2019-05-23T00:07:35.271Z,20.33
2019-05-23T00:10:22.131Z,20.70
2019-05-23T00:13:00.623Z,20.40
2019-05-23T00:15:35.416Z,20.33
2019-05-23T00:52:28.968Z,22.30
2019-05-23T00:54:55.163Z,20.50
2019-05-23T00:57:22.213Z,20.80
2019-05-23T00:59:49.271Z,20.80
2019-05-23T01:02:15.704Z,20.20
2019-05-23T01:04:42.066Z,19.13
2019-05-23T01:07:08.919Z,19.63
2019-05-23T01:09:35.731Z,19.43
2019-05-23T01:12:01.889Z,20.00
2019-05-23T01:14:29.347Z,19.13
2019-05-23T01:16:56.628Z,20.53
2019-05-23T01:19:23.470Z,20.57
2019-05-23T01:21:54.861Z,19.43
2019-05-23T01:24:27.443Z,20.70
2019-05-23T01:26:54.112Z,19.87
2019-05-23T01:29:21.663Z,19.60
2019-05-23T01:31:50.411Z,19.83
2019-05-23T01:34:17.359Z,19.90
2019-05-23T01:36:45.246Z,20.63
2019-05-23T01:39:11.975Z,21.17
2019-05-23T01:41:38.924Z,19.83
2019-05-23T01:44:05.571Z,20.07
2019-05-23T01:46:32.940Z,19.63
2019-05-23T01:48:59.219Z,21.07
2019-05-23T01:51:25.912Z,20.53
2019-05-23T01:53:52.058Z,18.37
2019-05-23T01:56:18.612Z,19.80
2019-05-23T01:58:45.065Z,20.00
2019-05-23T02:01:11.831Z,20.50
2019-05-23T02:03:38.587Z,19.43
2019-05-23T02:06:05.071Z,19.67
2019-05-23T02:08:31.441Z,19.40
2019-05-23T02:10:58.094Z,19.97
2019-05-23T02:13:24.289Z,20.07
2019-05-23T02:15:51.636Z,18.83
2019-05-23T02:18:19.689Z,20.63
2019-05-23T02:20:46.569Z,20.67
2019-05-23T02:23:15.827Z,20.20
2019-05-23T02:25:42.106Z,21.40
2019-05-23T02:28:09.475Z,20.50
2019-05-23T02:30:37.137Z,19.83
2019-05-23T02:33:04.309Z,19.83
2019-05-23T02:35:30.851Z,19.57
2019-05-23T02:38:11.667Z,20.33
2019-05-23T02:40:55.666Z,20.20
2019-05-23T02:43:23.735Z,21.43
2019-05-23T02:45:52.070Z,20.03
2019-05-23T02:48:35.256Z,21.47
2019-05-23T04:52:22.645Z,25.97
2019-05-23T08:59:53.942Z,17.50
2019-05-23T09:02:21.308Z,17.20
2019-05-23T09:05:03.439Z,17.97
2019-05-23T09:07:16.975Z,18.07
2019-05-23T09:09:43.356Z,15.63
2019-05-23T09:12:10.260Z,15.50
2019-05-23T09:14:36.794Z,14.53
2019-05-23T09:17:03.842Z,15.30
2019-05-23T09:19:30.204Z,15.57
2019-05-23T09:21:58.068Z,16.23
2019-05-23T09:24:24.636Z,14.37
2019-05-23T09:26:51.503Z,16.17
2019-05-23T09:29:17.786Z,15.57
2019-05-23T09:31:44.125Z,10.90
2019-05-23T09:34:10.799Z,12.07
2019-05-23T09:36:36.944Z,10.93
2019-05-23T09:41:31.880Z,10.20
2019-05-23T09:43:58.158Z,10.70
2019-05-23T09:46:25.409Z,9.23
2019-05-23T09:48:51.891Z,10.47
2019-05-23T09:51:18.358Z,11.90
2019-05-23T09:53:47.416Z,12.23
2019-05-23T09:56:14.141Z,12.13
2019-05-23T09:58:40.653Z,11.87
2019-05-23T10:01:07.026Z,11.50
2019-05-23T10:03:33.332Z,11.77
2019-05-23T10:05:59.684Z,10.37
2019-05-23T10:08:26.147Z,11.20
2019-05-23T10:10:52.307Z,11.63
2019-05-23T10:13:18.660Z,11.47
2019-05-23T10:15:50.578Z,11.03
2019-05-23T10:18:21.043Z,11.73
2019-05-23T10:20:47.300Z,11.70
2019-05-23T10:23:13.936Z,11.00
2019-05-23T10:25:40.162Z,10.70
2019-05-23T10:28:06.626Z,10.43
2019-05-23T10:30:32.930Z,11.20
2019-05-23T10:32:59.162Z,10.83
2019-05-23T10:35:26.187Z,11.67
2019-05-23T10:37:52.347Z,12.67
2019-05-23T10:40:19.840Z,13.03
2019-05-23T10:42:46.107Z,11.73
2019-05-23T10:45:12.585Z,11.00
2019-05-23T10:47:38.808Z,12.07
2019-05-23T10:50:08.445Z,11.63
2019-05-23T10:52:34.916Z,11.00
2019-05-23T10:55:01.187Z,10.57
2019-05-23T10:57:27.955Z,9.57
2019-05-23T10:59:54.149Z,8.97
2019-05-23T11:02:20.504Z,8.90
2019-05-23T11:04:46.665Z,8.23
2019-05-23T11:07:13.630Z,8.43
2019-05-23T11:09:42.460Z,7.93
2019-05-23T11:12:09.661Z,8.90
2019-05-23T11:14:36.026Z,10.50
2019-05-23T11:17:03.089Z,10.37
2019-05-23T11:19:29.410Z,9.10
2019-05-23T11:21:56.173Z,9.80
2019-05-23T11:24:23.561Z,9.97
2019-05-23T11:26:49.904Z,10.43
2019-05-23T11:29:16.164Z,9.63
2019-05-23T11:31:42.715Z,8.03
2019-05-23T11:34:09.187Z,9.83
2019-05-23T11:36:36.831Z,9.77
2019-05-23T11:39:06.455Z,10.50
2019-05-23T11:41:33.021Z,9.13
2019-05-23T11:43:59.491Z,8.27
2019-05-23T11:46:27.571Z,7.23
2019-05-23T11:48:54.528Z,7.07
2019-05-23T11:51:25.164Z,7.20
2019-05-23T11:54:06.001Z,7.97
2019-05-23T11:56:18.544Z,6.43
2019-05-23T11:58:44.983Z,7.20
2019-05-23T12:01:21.480Z,5.97
2019-05-23T12:03:49.914Z,5.63
2019-05-23T12:06:16.681Z,5.53
2019-05-23T12:08:43.136Z,6.13
2019-05-23T12:11:09.699Z,5.20
2019-05-23T12:13:35.983Z,5.50
2019-05-23T12:16:03.322Z,5.43
2019-05-23T12:18:29.473Z,4.50
2019-05-23T12:20:59.444Z,4.73
2019-05-23T12:23:24.041Z,5.17
2019-05-23T12:25:50.403Z,4.80
2019-05-23T12:28:19.498Z,4.43
2019-05-23T12:30:45.879Z,3.83
2019-05-23T12:33:12.026Z,4.77
2019-05-23T12:35:39.252Z,4.33
2019-05-23T12:38:06.104Z,4.53
2019-05-23T12:40:32.563Z,4.83
2019-05-23T12:42:58.720Z,4.03
2019-05-23T12:45:24.998Z,4.50
2019-05-23T12:47:55.745Z,4.83
2019-05-23T12:50:26.596Z,3.80
2019-05-23T12:52:52.786Z,3.77
2019-05-23T12:55:19.024Z,3.20
2019-05-23T12:57:45.180Z,4.00
2019-05-23T13:00:16.132Z,4.33
2019-05-23T13:02:42.821Z,4.33
2019-05-23T13:05:09.686Z,4.57
2019-05-23T13:07:36.920Z,4.40
2019-05-23T13:10:05.259Z,5.50
2019-05-23T13:12:31.492Z,4.00
2019-05-23T13:14:58.845Z,4.70
2019-05-23T13:17:25.461Z,4.30
2019-05-23T13:19:51.607Z,5.60
2019-05-23T13:22:17.876Z,5.43
2019-05-23T13:24:52.499Z,4.53
2019-05-23T13:27:13.223Z,4.27
2019-05-23T13:29:41.392Z,4.57
2019-05-23T13:32:09.273Z,4.27
2019-05-23T13:34:35.600Z,4.00
2019-05-23T13:37:02.794Z,3.70
2019-05-23T13:39:29.239Z,3.53
2019-05-23T13:41:55.409Z,3.63
2019-05-23T13:44:33.965Z,4.50
2019-05-23T13:46:50.133Z,4.67
2019-05-23T13:49:17.039Z,4.27
2019-05-23T13:51:43.711Z,3.67
2019-05-23T13:54:10.158Z,3.90
2019-05-23T13:56:36.494Z,3.40
2019-05-23T13:59:03.012Z,3.70
2019-05-23T14:01:29.417Z,3.80
2019-05-23T14:03:56.071Z,3.30
2019-05-23T14:06:22.428Z,3.57
2019-05-23T14:08:48.796Z,3.33
2019-05-23T14:11:15.100Z,3.50
2019-05-23T14:13:42.584Z,3.07
2019-05-23T14:16:09.169Z,3.03
2019-05-23T14:18:38.204Z,3.93
2019-05-23T14:21:04.968Z,3.47
2019-05-23T14:23:32.627Z,2.97
2019-05-23T14:26:00.499Z,3.53
2019-05-23T14:28:28.875Z,3.20
2019-05-23T14:31:03.571Z,3.27
2019-05-23T14:33:34.585Z,3.50
2019-05-23T14:36:15.087Z,2.67
2019-05-23T14:38:41.762Z,3.17
2019-05-23T14:41:08.809Z,2.90
2019-05-23T14:43:36.122Z,2.87
2019-05-23T14:46:07.820Z,2.97
2019-05-23T14:48:38.418Z,3.00
2019-05-23T14:51:09.251Z,2.73
2019-05-23T14:53:38.088Z,3.73
2019-05-23T14:56:05.760Z,2.63
2019-05-23T14:58:32.242Z,2.70
2019-05-23T15:00:59.307Z,2.60
2019-05-23T15:03:25.997Z,2.47
2019-05-23T15:05:53.560Z,2.50
2019-05-23T15:08:20.678Z,3.03
2019-05-23T15:10:46.940Z,3.13
2019-05-23T15:13:13.229Z,2.70
2019-05-23T15:15:39.374Z,2.40
2019-05-23T15:18:06.132Z,3.00
2019-05-23T15:20:32.475Z,2.83
2019-05-23T15:23:00.157Z,2.70
2019-05-23T15:25:26.674Z,3.20
2019-05-23T15:27:53.045Z,2.50
2019-05-23T15:30:19.517Z,3.20
2019-05-23T15:32:45.671Z,2.63
2019-05-23T15:35:12.565Z,2.40
2019-05-23T15:37:38.726Z,3.03
2019-05-23T15:40:05.491Z,2.80
2019-05-23T15:42:31.843Z,2.87
2019-05-23T15:44:58.309Z,2.90
2019-05-23T15:47:26.592Z,2.50
2019-05-23T15:52:47.107Z,2.40
2019-05-23T15:55:16.006Z,3.07
2019-05-23T15:57:44.311Z,2.40
2019-05-23T16:00:29.770Z,2.90
2019-05-23T16:03:07.675Z,3.00
2019-05-23T16:05:34.289Z,2.80
2019-05-23T16:08:00.732Z,3.00
2019-05-23T16:10:28.007Z,2.53
2019-05-23T16:12:54.206Z,2.03
2019-05-23T16:15:20.509Z,2.73
2019-05-23T16:17:46.892Z,2.83
2019-05-23T16:20:13.467Z,3.07
2019-05-23T16:22:39.621Z,2.13
2019-05-23T16:25:06.185Z,2.20
2019-05-23T16:27:32.587Z,2.60
2019-05-23T16:30:00.432Z,2.00
2019-05-23T16:32:27.012Z,2.20
2019-05-23T16:34:53.179Z,1.97
2019-05-23T16:37:19.915Z,2.20
2019-05-23T16:39:48.623Z,2.73
2019-05-23T16:42:15.094Z,2.57
2019-05-23T16:44:41.618Z,3.13
2019-05-23T16:47:07.996Z,2.60
2019-05-23T16:49:34.161Z,2.90
2019-05-23T16:52:00.621Z,2.80
2019-05-23T16:54:28.696Z,2.80
2019-05-23T16:57:02.981Z,4.00
2019-05-23T16:59:31.087Z,3.47
2019-05-23T17:02:06.633Z,3.17
2019-05-23T17:04:41.259Z,2.77
2019-05-23T17:07:12.610Z,2.83
2019-05-23T17:09:44.253Z,3.17
2019-05-23T17:12:15.189Z,3.77
2019-05-23T17:14:47.035Z,3.70
2019-05-23T17:17:42.908Z,3.70
2019-05-23T17:19:51.090Z,3.60
2019-05-23T17:22:36.152Z,4.00
2019-05-23T17:25:10.015Z,4.30
2019-05-23T17:27:44.020Z,4.60
2019-05-23T17:30:12.800Z,3.97
2019-05-23T17:32:39.153Z,4.03
2019-05-23T17:35:05.885Z,4.50
2019-05-23T17:37:32.735Z,4.53
2019-05-23T17:39:59.097Z,3.83
2019-05-23T17:42:25.490Z,4.00
2019-05-23T17:44:51.647Z,3.60
2019-05-23T17:47:18.086Z,3.33
2019-05-23T17:49:45.351Z,4.13
2019-05-23T17:52:12.002Z,3.50
2019-05-23T17:54:38.766Z,4.10
2019-05-23T17:57:05.412Z,4.50
2019-05-23T17:59:31.631Z,4.83
2019-05-23T18:01:57.976Z,4.40
2019-05-23T18:04:24.147Z,5.03
2019-05-23T18:06:50.952Z,5.53
2019-05-23T18:09:17.814Z,4.93
2019-05-23T18:11:44.428Z,5.47
2019-05-23T18:14:11.616Z,5.43
2019-05-23T18:16:37.775Z,5.57
2019-05-23T18:19:05.080Z,5.10
2019-05-23T18:21:32.135Z,4.37
2019-05-23T18:23:59.215Z,5.27
2019-05-23T18:26:25.884Z,5.83
2019-05-23T18:28:52.964Z,5.40
2019-05-23T18:31:21.150Z,5.70
2019-05-23T18:33:47.922Z,6.60
2019-05-23T18:36:14.802Z,6.23
2019-05-23T18:38:42.349Z,7.13
2019-05-23T18:41:09.556Z,5.40
2019-05-23T18:43:37.471Z,4.10
2019-05-23T18:46:08.612Z,3.80
2019-05-23T18:48:35.488Z,3.37
2019-05-23T18:51:02.345Z,3.07
2019-05-23T18:53:29.111Z,2.77
2019-05-23T18:55:55.279Z,2.90
2019-05-23T18:58:21.651Z,2.47
2019-05-23T19:01:01.533Z,2.63
2019-05-23T19:03:28.940Z,2.30
2019-05-23T19:05:55.093Z,2.53
2019-05-23T19:08:22.573Z,2.67
2019-05-23T19:10:48.923Z,2.20
2019-05-23T19:13:15.089Z,2.23
2019-05-23T19:15:41.652Z,2.40
2019-05-23T19:18:08.116Z,2.67
2019-05-23T19:20:34.907Z,2.10
2019-05-23T19:23:01.464Z,2.10
2019-05-23T19:25:27.760Z,2.20
2019-05-23T19:27:54.211Z,2.07
2019-05-23T19:30:21.025Z,2.43
2019-05-23T19:32:47.420Z,2.40
2019-05-23T19:35:14.634Z,1.83
2019-05-23T19:37:40.877Z,2.30
2019-05-23T19:40:08.758Z,2.40
2019-05-23T19:42:35.340Z,2.10
2019-05-23T19:45:03.517Z,2.30
2019-05-23T19:47:29.959Z,2.80
2019-05-23T19:49:56.122Z,2.57
2019-05-23T19:52:22.570Z,2.50
2019-05-23T19:54:48.955Z,2.20
2019-05-23T19:57:15.720Z,2.45
2019-05-23T19:59:42.760Z,2.20
2019-05-23T20:02:11.667Z,1.80
2019-05-23T20:04:42.926Z,2.20
2019-05-23T20:07:10.137Z,1.90
2019-05-23T20:09:36.788Z,2.00
2019-05-23T20:12:03.847Z,2.27
2019-05-23T20:14:30.016Z,2.20
2019-05-23T20:16:56.584Z,2.47
2019-05-23T20:19:23.029Z,1.83
2019-05-23T20:21:49.442Z,2.30
2019-05-23T20:24:15.773Z,2.33
2019-05-23T20:26:42.200Z,2.20
2019-05-23T20:29:08.555Z,2.30
2019-05-23T20:31:35.280Z,2.80
2019-05-23T20:34:01.962Z,2.23
2019-05-23T20:36:28.267Z,2.43
2019-05-23T20:38:54.447Z,2.50
2019-05-23T20:41:21.310Z,2.60
2019-05-23T20:43:47.559Z,2.63
2019-05-23T20:46:13.862Z,2.60
2019-05-23T20:48:40.037Z,2.60
2019-05-23T20:51:06.238Z,2.50
2019-05-23T20:53:32.585Z,2.40
2019-05-23T20:55:58.747Z,2.47
2019-05-23T20:58:24.898Z,2.20
2019-05-23T21:00:55.815Z,2.27
2019-05-23T21:03:23.664Z,2.80
2019-05-23T21:05:50.165Z,2.50
2019-05-23T21:08:16.522Z,3.17
2019-05-23T21:10:45.098Z,2.90
2019-05-23T21:13:11.244Z,3.27
2019-05-23T21:15:40.535Z,2.70
2019-05-23T21:18:05.971Z,2.60
2019-05-23T21:20:32.237Z,2.70
2019-05-23T21:22:58.601Z,3.07
2019-05-23T21:25:25.652Z,2.67
2019-05-23T21:27:51.899Z,2.50
2019-05-23T21:30:18.184Z,2.73
2019-05-23T21:32:44.537Z,2.73
2019-05-23T21:35:10.915Z,2.70
2019-05-23T21:37:37.061Z,2.87
2019-05-23T21:40:06.325Z,3.20
2019-05-23T21:42:46.807Z,3.27
2019-05-23T21:45:00.535Z,3.20
2019-05-23T21:47:26.687Z,3.47
2019-05-23T21:49:52.969Z,3.23
2019-05-23T21:52:19.344Z,3.57
2019-05-23T21:54:45.746Z,3.67
2019-05-23T21:57:12.236Z,3.07
2019-05-23T21:59:38.376Z,3.20
2019-05-23T22:02:09.721Z,3.07
2019-05-23T22:04:38.080Z,3.10
2019-05-23T22:07:04.390Z,3.13
2019-05-23T22:09:31.510Z,3.00
2019-05-23T22:11:57.879Z,3.03
2019-05-23T22:14:24.094Z,3.40
2019-05-23T22:16:50.740Z,3.57
2019-05-23T22:19:18.909Z,3.73
2019-05-23T22:21:45.078Z,3.60
2019-05-23T22:24:12.234Z,3.47
2019-05-23T22:26:38.495Z,3.50
2019-05-23T22:29:06.061Z,3.50
2019-05-23T22:31:32.231Z,3.30
2019-05-23T22:34:03.173Z,3.50
2019-05-23T22:36:29.341Z,3.23
2019-05-23T22:38:55.600Z,3.43
2019-05-23T22:41:21.746Z,3.73
2019-05-23T22:43:47.906Z,3.67
2019-05-23T22:46:14.700Z,3.93
2019-05-23T22:48:40.876Z,4.00
2019-05-23T22:51:07.144Z,3.77
2019-05-23T22:53:33.307Z,3.80
2019-05-23T22:55:59.482Z,3.80
2019-05-23T22:58:25.635Z,3.70
2019-05-23T23:00:52.191Z,3.43
2019-05-23T23:03:18.369Z,2.93
2019-05-23T23:05:44.779Z,3.73
2019-05-23T23:08:11.593Z,3.90
2019-05-23T23:10:38.344Z,4.13
2019-05-23T23:13:04.815Z,3.67
2019-05-23T23:15:32.057Z,3.83
2019-05-23T23:17:58.337Z,4.20
2019-05-23T23:20:24.768Z,3.63
2019-05-23T23:22:50.914Z,4.53
2019-05-23T23:25:17.072Z,4.17
2019-05-23T23:27:43.286Z,3.40
2019-05-23T23:30:11.571Z,4.47
2019-05-23T23:32:38.059Z,3.70
2019-05-23T23:35:05.409Z,3.47
2019-05-23T23:37:31.558Z,3.80
2019-05-23T23:39:57.772Z,3.47
2019-05-23T23:42:24.004Z,3.87
2019-05-23T23:44:50.434Z,3.90
2019-05-23T23:47:35.140Z,4.07
2019-05-23T23:50:21.565Z,3.93
2019-05-23T23:53:06.304Z,4.30
2019-05-23T23:55:51.196Z,4.30
2019-05-23T23:58:17.449Z,4.27
